sensor_id;sensor_type;location;lat;lon;timestamp;pressure;altitude;pressure_sealevel;temperature;humidity
22047;BME280;11187;49.412;20.956;2022-10-31T00:02:21;95616.31;;;8.90;100.00
22047;BME280;11187;49.412;20.956;2022-10-31T00:04:55;95622.31;;;8.89;100.00
22047;BME280;11187;49.412;20.956;2022-10-31T00:07:52;95620.59;;;8.88;100.00
22047;BME280;11187;49.412;20.956;2022-10-31T00:10:46;95615.47;;;8.88;100.00
22047;BME280;11187;49.412;20.956;2022-10-31T00:13:19;95611.25;;;8.87;100.00
22047;BME280;11187;49.412;20.956;2022-10-31T00:16:16;95612.09;;;8.83;100.00
22047;BME280;11187;49.412;20.956;2022-10-31T00:18:53;95612.13;;;8.78;100.00
22047;BME280;11187;49.412;20.956;2022-10-31T00:21:47;95612.13;;;8.76;100.00
22047;BME280;11187;49.412;20.956;2022-10-31T00:24:20;95609.59;;;8.75;100.00
22047;BME280;11187;49.412;20.956;2022-10-31T00:27:14;95606.19;;;8.71;100.00
22047;BME280;11187;49.412;20.956;2022-10-31T00:30:09;95599.38;;;8.67;100.00
22047;BME280;11187;49.412;20.956;2022-10-31T00:32:42;95608.78;;;8.64;100.00
22047;BME280;11187;49.412;20.956;2022-10-31T00:35:28;95599.44;;;8.61;100.00
22047;BME280;11187;49.412;20.956;2022-10-31T00:38:02;95600.28;;;8.62;100.00
22047;BME280;11187;49.412;20.956;2022-10-31T00:40:55;95596.00;;;8.64;100.00
22047;BME280;11187;49.412;20.956;2022-10-31T00:43:49;95602.81;;;8.62;100.00
22047;BME280;11187;49.412;20.956;2022-10-31T00:46:23;95598.56;;;8.61;100.00
22047;BME280;11187;49.412;20.956;2022-10-31T00:49:09;95602.84;;;8.59;100.00
22047;BME280;11187;49.412;20.956;2022-10-31T00:51:43;95601.13;;;8.53;100.00
22047;BME280;11187;49.412;20.956;2022-10-31T00:54:36;95601.16;;;8.48;100.00
22047;BME280;11187;49.412;20.956;2022-10-31T00:57:10;95601.16;;;8.47;100.00
22047;BME280;11187;49.412;20.956;2022-10-31T00:59:56;95603.72;;;8.45;100.00
22047;BME280;11187;49.412;20.956;2022-10-31T01:02:30;95597.75;;;8.45;100.00
22047;BME280;11187;49.412;20.956;2022-10-31T01:05:17;95599.44;;;8.44;100.00
22047;BME280;11187;49.412;20.956;2022-10-31T01:07:50;95600.31;;;8.46;100.00
22047;BME280;11187;49.412;20.956;2022-10-31T01:10:43;95607.09;;;8.49;100.00
22047;BME280;11187;49.412;20.956;2022-10-31T01:13:38;95598.59;;;8.48;100.00
22047;BME280;11187;49.412;20.956;2022-10-31T01:16:14;95601.16;;;8.50;100.00
22047;BME280;11187;49.412;20.956;2022-10-31T01:19:01;95596.06;;;8.50;100.00
22047;BME280;11187;49.412;20.956;2022-10-31T01:21:35;95600.28;;;8.51;100.00
22047;BME280;11187;49.412;20.956;2022-10-31T01:24:21;95598.59;;;8.50;100.00
22047;BME280;11187;49.412;20.956;2022-10-31T01:26:55;95596.06;;;8.50;100.00
22047;BME280;11187;49.412;20.956;2022-10-31T01:29:48;95595.22;;;8.48;100.00
22047;BME280;11187;49.412;20.956;2022-10-31T01:32:22;95589.25;;;8.44;100.00
22047;BME280;11187;49.412;20.956;2022-10-31T01:35:08;95596.06;;;8.41;100.00
22047;BME280;11187;49.412;20.956;2022-10-31T01:37:42;95593.47;;;8.37;100.00
22047;BME280;11187;49.412;20.956;2022-10-31T01:40:35;95594.34;;;8.36;100.00
22047;BME280;11187;49.412;20.956;2022-10-31T01:46:20;95596.03;;;8.37;100.00
22047;BME280;11187;49.412;20.956;2022-10-31T01:49:31;95595.19;;;8.39;100.00
22047;BME280;11187;49.412;20.956;2022-10-31T01:52:30;95589.25;;;8.36;100.00
22047;BME280;11187;49.412;20.956;2022-10-31T01:55:07;95599.47;;;8.33;100.00
22047;BME280;11187;49.412;20.956;2022-10-31T01:58:13;95596.91;;;8.32;100.00
22047;BME280;11187;49.412;20.956;2022-10-31T02:01:07;95599.44;;;8.30;100.00
22047;BME280;11187;49.412;20.956;2022-10-31T02:04:01;95597.75;;;8.28;100.00
22047;BME280;11187;49.412;20.956;2022-10-31T02:06:59;95605.41;;;8.26;100.00
22047;BME280;11187;49.412;20.956;2022-10-31T02:09:36;95595.22;;;8.25;100.00
22047;BME280;11187;49.412;20.956;2022-10-31T02:12:24;95599.47;;;8.21;100.00
22047;BME280;11187;49.412;20.956;2022-10-31T02:14:59;95599.47;;;8.21;100.00
22047;BME280;11187;49.412;20.956;2022-10-31T02:17:53;95606.28;;;8.22;100.00
22047;BME280;11187;49.412;20.956;2022-10-31T02:21:17;95601.19;;;8.21;100.00
22047;BME280;11187;49.412;20.956;2022-10-31T02:42:16;95600.34;;;8.02;100.00
22047;BME280;11187;49.412;20.956;2022-10-31T02:45:29;95596.94;;;8.01;100.00
22047;BME280;11187;49.412;20.956;2022-10-31T02:48:19;95599.47;;;8.01;100.00
22047;BME280;11187;49.412;20.956;2022-10-31T02:50:57;95599.50;;;8.03;100.00
22047;BME280;11187;49.412;20.956;2022-10-31T02:53:45;95596.94;;;8.01;100.00
22047;BME280;11187;49.412;20.956;2022-10-31T02:56:19;95596.94;;;8.01;100.00
22047;BME280;11187;49.412;20.956;2022-10-31T02:59:06;95596.97;;;8.00;100.00
22047;BME280;11187;49.412;20.956;2022-10-31T03:02:09;95601.19;;;8.01;100.00
22047;BME280;11187;49.412;20.956;2022-10-31T03:05:06;95599.50;;;8.00;100.00
22047;BME280;11187;49.412;20.956;2022-10-31T03:16:51;95607.13;;;8.01;100.00
22047;BME280;11187;49.412;20.956;2022-10-31T03:19:39;95606.28;;;7.99;100.00
22047;BME280;11187;49.412;20.956;2022-10-31T03:22:29;95607.16;;;7.98;100.00
22047;BME280;11187;49.412;20.956;2022-10-31T03:25:04;95608.00;;;7.97;100.00
22047;BME280;11187;49.412;20.956;2022-10-31T03:27:52;95608.00;;;7.95;100.00
22047;BME280;11187;49.412;20.956;2022-10-31T03:30:26;95608.00;;;7.95;100.00
22047;BME280;11187;49.412;20.956;2022-10-31T03:33:17;95608.84;;;7.94;100.00
22047;BME280;11187;49.412;20.956;2022-10-31T03:35:54;95607.97;;;7.92;100.00
22047;BME280;11187;49.412;20.956;2022-10-31T03:38:50;95613.94;;;7.87;100.00
22047;BME280;11187;49.412;20.956;2022-10-31T03:41:49;95613.09;;;7.85;100.00
22047;BME280;11187;49.412;20.956;2022-10-31T03:44:27;95612.25;;;7.84;100.00
22047;BME280;11187;49.412;20.956;2022-10-31T03:47:15;95618.19;;;7.83;100.00
22047;BME280;11187;49.412;20.956;2022-10-31T03:49:49;95612.25;;;7.83;100.00
22047;BME280;11187;49.412;20.956;2022-10-31T03:55:47;95612.25;;;7.75;100.00
22047;BME280;11187;49.412;20.956;2022-10-31T03:58:27;95622.44;;;7.70;100.00
22047;BME280;11187;49.412;20.956;2022-10-31T04:01:25;95613.94;;;7.70;100.00
22047;BME280;11187;49.412;20.956;2022-10-31T04:04:20;95622.41;;;7.67;100.00
22047;BME280;11187;49.412;20.956;2022-10-31T04:07:15;95623.28;;;7.66;100.00
22047;BME280;11187;49.412;20.956;2022-10-31T04:09:50;95619.88;;;7.67;100.00
22047;BME280;11187;49.412;20.956;2022-10-31T04:12:38;95622.44;;;7.70;100.00
22047;BME280;11187;49.412;20.956;2022-10-31T04:15:12;95624.13;;;7.68;100.00
22047;BME280;11187;49.412;20.956;2022-10-31T04:18:01;95622.44;;;7.61;100.00
22047;BME280;11187;49.412;20.956;2022-10-31T04:20:40;95617.31;;;7.58;100.00
22047;BME280;11187;49.412;20.956;2022-10-31T04:23:37;95620.72;;;7.57;100.00
22047;BME280;11187;49.412;20.956;2022-10-31T04:26:31;95617.31;;;7.55;100.00
22047;BME280;11187;49.412;20.956;2022-10-31T04:29:25;95619.88;;;7.50;100.00
22047;BME280;11187;49.412;20.956;2022-10-31T04:31:59;95619.84;;;7.49;100.00
22047;BME280;11187;49.412;20.956;2022-10-31T04:34:52;95619.00;;;7.48;100.00
22047;BME280;11187;49.412;20.956;2022-10-31T04:37:26;95624.13;;;7.50;100.00
22047;BME280;11187;49.412;20.956;2022-10-31T04:40:12;95619.84;;;7.49;100.00
22047;BME280;11187;49.412;20.956;2022-10-31T04:42:46;95628.34;;;7.46;100.00
22047;BME280;11187;49.412;20.956;2022-10-31T04:45:39;95628.34;;;7.45;100.00
22047;BME280;11187;49.412;20.956;2022-10-31T04:48:16;95620.69;;;7.42;100.00
22047;BME280;11187;49.412;20.956;2022-10-31T04:51:02;95635.16;;;7.43;100.00
22047;BME280;11187;49.412;20.956;2022-10-31T04:53:36;95635.97;;;7.42;100.00
22047;BME280;11187;49.412;20.956;2022-10-31T04:56:22;95629.19;;;7.42;100.00
22047;BME280;11187;49.412;20.956;2022-10-31T04:58:56;95635.13;;;7.41;100.00
22047;BME280;11187;49.412;20.956;2022-10-31T05:01:49;95632.59;;;7.43;100.00
22047;BME280;11187;49.412;20.956;2022-10-31T05:04:43;95627.50;;;7.43;100.00
22047;BME280;11187;49.412;20.956;2022-10-31T05:07:41;95631.72;;;7.44;100.00
22047;BME280;11187;49.412;20.956;2022-10-31T05:10:36;95635.16;;;7.43;100.00
22047;BME280;11187;49.412;20.956;2022-10-31T05:13:30;95632.59;;;7.41;100.00
22047;BME280;11187;49.412;20.956;2022-10-31T05:16:03;95634.28;;;7.41;100.00
22047;BME280;11187;49.412;20.956;2022-10-31T05:18:49;95636.81;;;7.39;100.00
22047;BME280;11187;49.412;20.956;2022-10-31T05:21:25;95632.56;;;7.37;100.00
22047;BME280;11187;49.412;20.956;2022-10-31T05:24:12;95634.28;;;7.31;100.00
22047;BME280;11187;49.412;20.956;2022-10-31T05:26:46;95639.38;;;7.31;100.00
22047;BME280;11187;49.412;20.956;2022-10-31T05:29:32;95637.66;;;7.29;100.00
22047;BME280;11187;49.412;20.956;2022-10-31T05:32:06;95639.34;;;7.28;100.00
22047;BME280;11187;49.412;20.956;2022-10-31T05:34:52;95641.03;;;7.28;100.00
22047;BME280;11187;49.412;20.956;2022-10-31T05:37:26;95642.72;;;7.26;100.00
22047;BME280;11187;49.412;20.956;2022-10-31T05:40:14;95645.28;;;7.27;100.00
22047;BME280;11187;49.412;20.956;2022-10-31T05:42:47;95648.69;;;7.29;100.00
22047;BME280;11187;49.412;20.956;2022-10-31T05:45:38;95641.88;;;7.33;100.00
22047;BME280;11187;49.412;20.956;2022-10-31T05:48:12;95643.59;;;7.34;100.00
22047;BME280;11187;49.412;20.956;2022-10-31T05:50:58;95643.59;;;7.34;100.00
22047;BME280;11187;49.412;20.956;2022-10-31T05:53:32;95635.13;;;7.37;100.00
22047;BME280;11187;49.412;20.956;2022-10-31T05:56:18;95645.31;;;7.41;100.00
22047;BME280;11187;49.412;20.956;2022-10-31T05:58:52;95650.41;;;7.44;100.00
22047;BME280;11187;49.412;20.956;2022-10-31T06:01:45;95647.00;;;7.47;100.00
22047;BME280;11187;49.412;20.956;2022-10-31T06:04:39;95647.88;;;7.46;100.00
22047;BME280;11187;49.412;20.956;2022-10-31T06:07:34;95647.03;;;7.44;100.00
22047;BME280;11187;49.412;20.956;2022-10-31T06:10:29;95652.94;;;7.40;100.00
22047;BME280;11187;49.412;20.956;2022-10-31T06:13:23;95655.50;;;7.41;100.00
22047;BME280;11187;49.412;20.956;2022-10-31T06:15:57;95645.31;;;7.41;100.00
22047;BME280;11187;49.412;20.956;2022-10-31T06:18:45;95656.34;;;7.42;100.00
22047;BME280;11187;49.412;20.956;2022-10-31T06:21:19;95658.06;;;7.41;100.00
22047;BME280;11187;49.412;20.956;2022-10-31T06:24:08;95656.34;;;7.39;100.00
22047;BME280;11187;49.412;20.956;2022-10-31T06:26:42;95662.28;;;7.42;100.00
22047;BME280;11187;49.412;20.956;2022-10-31T06:29:28;95664.03;;;7.45;100.00
22047;BME280;11187;49.412;20.956;2022-10-31T06:32:02;95661.47;;;7.48;100.00
22047;BME280;11187;49.412;20.956;2022-10-31T06:34:48;95667.41;;;7.53;100.00
22047;BME280;11187;49.412;20.956;2022-10-31T06:37:22;95667.44;;;7.55;100.00
22047;BME280;11187;49.412;20.956;2022-10-31T06:40:15;95675.91;;;7.55;100.00
22047;BME280;11187;49.412;20.956;2022-10-31T06:43:09;95675.06;;;7.56;100.00
22047;BME280;11187;49.412;20.956;2022-10-31T06:45:44;95680.16;;;7.51;100.00
22047;BME280;11187;49.412;20.956;2022-10-31T06:48:37;95675.91;;;7.49;100.00
22047;BME280;11187;49.412;20.956;2022-10-31T06:51:31;95675.91;;;7.47;100.00
22047;BME280;11187;49.412;20.956;2022-10-31T06:54:25;95676.78;;;7.49;100.00
22047;BME280;11187;49.412;20.956;2022-10-31T06:56:59;95682.72;;;7.55;100.00
22047;BME280;11187;49.412;20.956;2022-10-31T06:59:45;95681.03;;;7.60;100.00
22047;BME280;11187;49.412;20.956;2022-10-31T07:02:39;95680.16;;;7.61;100.00
22047;BME280;11187;49.412;20.956;2022-10-31T07:05:33;95676.78;;;7.60;100.00
22047;BME280;11187;49.412;20.956;2022-10-31T07:08:10;95679.34;;;7.65;100.00
22047;BME280;11187;49.412;20.956;2022-10-31T07:11:03;95681.91;;;7.66;100.00
22047;BME280;11187;49.412;20.956;2022-10-31T07:13:57;95675.94;;;7.67;100.00
22047;BME280;11187;49.412;20.956;2022-10-31T07:16:51;95671.69;;;7.69;100.00
22047;BME280;11187;49.412;20.956;2022-10-31T07:19:25;95673.41;;;7.72;100.00
22047;BME280;11187;49.412;20.956;2022-10-31T07:22:14;95675.97;;;7.75;100.00
22047;BME280;11187;49.412;20.956;2022-10-31T07:24:48;95675.13;;;7.79;100.00
22047;BME280;11187;49.412;20.956;2022-10-31T07:27:36;95675.13;;;7.78;100.00
22047;BME280;11187;49.412;20.956;2022-10-31T07:30:11;95678.53;;;7.80;100.00
22047;BME280;11187;49.412;20.956;2022-10-31T07:33:06;95677.69;;;7.84;100.00
22047;BME280;11187;49.412;20.956;2022-10-31T07:35:40;95682.78;;;7.87;100.00
22047;BME280;11187;49.412;20.956;2022-10-31T07:38:33;95682.78;;;7.91;100.00
22047;BME280;11187;49.412;20.956;2022-10-31T07:41:07;95680.22;;;7.91;100.00
22047;BME280;11187;49.412;20.956;2022-10-31T07:44:00;95684.47;;;7.89;100.00
22047;BME280;11187;49.412;20.956;2022-10-31T07:46:54;95685.34;;;7.93;100.00
22047;BME280;11187;49.412;20.956;2022-10-31T07:49:28;95686.19;;;7.97;100.00
22047;BME280;11187;49.412;20.956;2022-10-31T07:52:21;95685.34;;;8.02;100.00
22047;BME280;11187;49.412;20.956;2022-10-31T07:55:15;95690.44;;;8.07;100.00
22047;BME280;11187;49.412;20.956;2022-10-31T07:58:06;95687.03;;;8.08;100.00
22047;BME280;11187;49.412;20.956;2022-10-31T08:00:53;95687.91;;;8.11;100.00
22047;BME280;11187;49.412;20.956;2022-10-31T08:03:27;95681.97;;;8.15;100.00
22047;BME280;11187;49.412;20.956;2022-10-31T08:06:20;95689.59;;;8.20;100.00
22047;BME280;11187;49.412;20.956;2022-10-31T08:08:54;95694.69;;;8.22;100.00
22047;BME280;11187;49.412;20.956;2022-10-31T08:11:40;95690.44;;;8.28;100.00
22047;BME280;11187;49.412;20.956;2022-10-31T08:14:14;95687.06;;;8.34;100.00
22047;BME280;11187;49.412;20.956;2022-10-31T08:17:00;95687.06;;;8.42;100.00
22047;BME280;11187;49.412;20.956;2022-10-31T08:19:34;95687.91;;;8.47;100.00
22047;BME280;11187;49.412;20.956;2022-10-31T08:22:22;95692.16;;;8.51;100.00
22047;BME280;11187;49.412;20.956;2022-10-31T08:24:56;95686.22;;;8.56;100.00
22047;BME280;11187;49.412;20.956;2022-10-31T08:27:49;95681.09;;;8.66;100.00
22047;BME280;11187;49.412;20.956;2022-10-31T08:30:26;95677.66;;;8.73;100.00
22047;BME280;11187;49.412;20.956;2022-10-31T08:33:16;95681.91;;;8.80;100.00
22047;BME280;11187;49.412;20.956;2022-10-31T08:35:50;95679.31;;;8.89;100.00
22047;BME280;11187;49.412;20.956;2022-10-31T08:38:37;95678.44;;;9.01;100.00
22047;BME280;11187;49.412;20.956;2022-10-31T08:41:11;95683.50;;;9.15;100.00
22047;BME280;11187;49.412;20.956;2022-10-31T08:44:04;95683.44;;;9.29;100.00
22047;BME280;11187;49.412;20.956;2022-10-31T08:46:38;95682.53;;;9.45;100.00
22047;BME280;11187;49.412;20.956;2022-10-31T08:49:34;95685.81;;;9.64;100.00
22047;BME280;11187;49.412;20.956;2022-10-31T08:52:28;95689.94;;;9.87;100.00
22047;BME280;11187;49.412;20.956;2022-10-31T08:55:22;95681.28;;;10.08;100.00
22047;BME280;11187;49.412;20.956;2022-10-31T08:58:11;95679.44;;;10.27;100.00
22047;BME280;11187;49.412;20.956;2022-10-31T09:00:47;95683.59;;;10.40;100.00
22047;BME280;11187;49.412;20.956;2022-10-31T09:03:33;95680.13;;;10.50;100.00
22047;BME280;11187;49.412;20.956;2022-10-31T09:06:07;95673.19;;;10.61;100.00
22047;BME280;11187;49.412;20.956;2022-10-31T09:08:53;95678.22;;;10.69;100.00
22047;BME280;11187;49.412;20.956;2022-10-31T09:11:27;95679.00;;;10.77;100.00
22047;BME280;11187;49.412;20.956;2022-10-31T09:14:13;95673.78;;;10.86;100.00
22047;BME280;11187;49.412;20.956;2022-10-31T09:16:47;95672.84;;;10.95;100.00
22047;BME280;11187;49.412;20.956;2022-10-31T09:19:36;95677.81;;;11.07;100.00
22047;BME280;11187;49.412;20.956;2022-10-31T09:22:10;95673.47;;;11.16;100.00
22047;BME280;11187;49.412;20.956;2022-10-31T09:24:56;95668.22;;;11.25;100.00
22047;BME280;11187;49.412;20.956;2022-10-31T09:27:30;95674.97;;;11.31;100.00
22047;BME280;11187;49.412;20.956;2022-10-31T09:30:25;95665.50;;;11.39;100.00
22047;BME280;11187;49.412;20.956;2022-10-31T09:33:19;95667.09;;;11.46;100.00
22047;BME280;11187;49.412;20.956;2022-10-31T09:36:12;95670.44;;;11.51;100.00
22047;BME280;11187;49.412;20.956;2022-10-31T09:38:46;95664.41;;;11.55;100.00
22047;BME280;11187;49.412;20.956;2022-10-31T09:51:10;95668.50;;;11.68;100.00
22047;BME280;11187;49.412;20.956;2022-10-31T09:56:41;95670.94;;;11.78;100.00
22047;BME280;11187;49.412;20.956;2022-10-31T09:59:30;95671.72;;;11.83;100.00
22047;BME280;11187;49.412;20.956;2022-10-31T10:02:32;95669.94;;;11.89;100.00
22047;BME280;11187;49.412;20.956;2022-10-31T10:05:34;95667.38;;;11.93;100.00
22047;BME280;11187;49.412;20.956;2022-10-31T10:08:32;95671.53;;;11.98;100.00
22047;BME280;11187;49.412;20.956;2022-10-31T10:11:33;95663.84;;;11.97;100.00
22047;BME280;11187;49.412;20.956;2022-10-31T10:20:10;95656.91;;;12.05;100.00
22047;BME280;11187;49.412;20.956;2022-10-31T10:23:34;95664.59;;;12.06;100.00
22047;BME280;11187;49.412;20.956;2022-10-31T10:26:43;95663.69;;;12.10;100.00
22047;BME280;11187;49.412;20.956;2022-10-31T10:29:32;95667.03;;;12.14;100.00
22047;BME280;11187;49.412;20.956;2022-10-31T10:32:25;95665.28;;;12.16;100.00
22047;BME280;11187;49.412;20.956;2022-10-31T10:35:11;95669.53;;;12.17;100.00
22047;BME280;11187;49.412;20.956;2022-10-31T10:38:34;95648.97;;;12.19;100.00
22047;BME280;11187;49.412;20.956;2022-10-31T10:41:17;95656.66;;;12.22;100.00
22047;BME280;11187;49.412;20.956;2022-10-31T10:44:13;95657.44;;;12.24;100.00
22047;BME280;11187;49.412;20.956;2022-10-31T10:47:08;95654.94;;;12.22;100.00
22047;BME280;11187;49.412;20.956;2022-10-31T10:50:30;95653.19;;;12.24;100.00
22047;BME280;11187;49.412;20.956;2022-10-31T10:56:33;95640.38;;;12.23;100.00
22047;BME280;11187;49.412;20.956;2022-10-31T10:59:13;95639.47;;;12.24;100.00
22047;BME280;11187;49.412;20.956;2022-10-31T11:02:03;95646.25;;;12.28;100.00
22047;BME280;11187;49.412;20.956;2022-10-31T11:04:50;95643.66;;;12.31;100.00
22047;BME280;11187;49.412;20.956;2022-10-31T11:07:40;95647.03;;;12.33;100.00
22047;BME280;11187;49.412;20.956;2022-10-31T11:10:15;95635.81;;;12.39;100.00
22047;BME280;11187;49.412;20.956;2022-10-31T11:18:42;95638.25;;;12.46;100.00
22047;BME280;11187;49.412;20.956;2022-10-31T11:21:24;95636.50;;;12.48;100.00
22047;BME280;11187;49.412;20.956;2022-10-31T11:24:24;95639.06;;;12.48;100.00
22047;BME280;11187;49.412;20.956;2022-10-31T11:27:21;95631.34;;;12.50;100.00
22047;BME280;11187;49.412;20.956;2022-10-31T11:30:12;95639.03;;;12.51;100.00
22047;BME280;11187;49.412;20.956;2022-10-31T11:32:49;95626.19;;;12.51;100.00
22047;BME280;11187;49.412;20.956;2022-10-31T11:35:44;95626.16;;;12.53;100.00
22047;BME280;11187;49.412;20.956;2022-10-31T11:38:42;95629.53;;;12.57;100.00
22047;BME280;11187;49.412;20.956;2022-10-31T11:41:27;95630.28;;;12.62;100.00
22047;BME280;11187;49.412;20.956;2022-10-31T11:44:18;95632.78;;;12.65;100.00
22047;BME280;11187;49.412;20.956;2022-10-31T11:46:54;95626.69;;;12.70;100.00
22047;BME280;11187;49.412;20.956;2022-10-31T11:49:44;95627.50;;;12.74;100.00
22047;BME280;11187;49.412;20.956;2022-10-31T11:52:21;95623.97;;;12.78;100.00
22047;BME280;11187;49.412;20.956;2022-10-31T11:55:30;95620.56;;;12.78;100.00
22047;BME280;11187;49.412;20.956;2022-10-31T11:58:04;95618.81;;;12.80;100.00
22047;BME280;11187;49.412;20.956;2022-10-31T12:01:30;95617.09;;;12.80;100.00
22047;BME280;11187;49.412;20.956;2022-10-31T12:04:40;95619.63;;;12.82;100.00
22047;BME280;11187;49.412;20.956;2022-10-31T12:07:14;95616.16;;;12.84;100.00
22047;BME280;11187;49.412;20.956;2022-10-31T12:10:09;95624.69;;;12.85;100.00
22047;BME280;11187;49.412;20.956;2022-10-31T12:12:52;95623.84;;;12.86;100.00
22047;BME280;11187;49.412;20.956;2022-10-31T12:16:00;95617.78;;;12.88;100.00
22047;BME280;11187;49.412;20.956;2022-10-31T12:19:11;95623.78;;;12.89;100.00
22047;BME280;11187;49.412;20.956;2022-10-31T12:22:02;95621.22;;;12.89;100.00
22047;BME280;11187;49.412;20.956;2022-10-31T12:28:03;95621.97;;;12.94;100.00
22047;BME280;11187;49.412;20.956;2022-10-31T12:50:28;95621.09;;;12.95;100.00
22047;BME280;11187;49.412;20.956;2022-10-31T12:53:42;95620.25;;;12.94;100.00
22047;BME280;11187;49.412;20.956;2022-10-31T12:59:36;95626.25;;;12.93;100.00
22047;BME280;11187;49.412;20.956;2022-10-31T13:02:24;95627.09;;;12.94;100.00
22047;BME280;11187;49.412;20.956;2022-10-31T13:08:12;95625.41;;;12.93;100.00
22047;BME280;11187;49.412;20.956;2022-10-31T13:11:21;95631.41;;;12.92;100.00
22047;BME280;11187;49.412;20.956;2022-10-31T13:16:45;95631.47;;;12.89;100.00
22047;BME280;11187;49.412;20.956;2022-10-31T13:19:27;95632.41;;;12.86;100.00
22047;BME280;11187;49.412;20.956;2022-10-31T13:22:27;95627.31;;;12.83;100.00
22047;BME280;11187;49.412;20.956;2022-10-31T13:27:56;95628.28;;;12.78;100.00
22047;BME280;11187;49.412;20.956;2022-10-31T13:30:36;95628.34;;;12.73;100.00
22047;BME280;11187;49.412;20.956;2022-10-31T13:33:54;95624.19;;;12.67;100.00
22047;BME280;11187;49.412;20.956;2022-10-31T13:36:56;95628.50;;;12.65;100.00
22047;BME280;11187;49.412;20.956;2022-10-31T13:39:52;95632.00;;;12.61;100.00
22047;BME280;11187;49.412;20.956;2022-10-31T13:45:19;95637.28;;;12.53;100.00
22047;BME280;11187;49.412;20.956;2022-10-31T13:50:59;95634.00;;;12.44;100.00
22047;BME280;11187;49.412;20.956;2022-10-31T13:56:32;95647.00;;;12.35;100.00
22047;BME280;11187;49.412;20.956;2022-10-31T13:59:24;95645.41;;;12.27;100.00
22047;BME280;11187;49.412;20.956;2022-10-31T14:02:10;95642.09;;;12.21;100.00
22047;BME280;11187;49.412;20.956;2022-10-31T14:05:02;95643.91;;;12.14;100.00
22047;BME280;11187;49.412;20.956;2022-10-31T14:07:42;95649.13;;;12.11;100.00
22047;BME280;11187;49.412;20.956;2022-10-31T14:10:38;95649.22;;;12.03;100.00
22047;BME280;11187;49.412;20.956;2022-10-31T14:13:25;95650.16;;;11.98;100.00
22047;BME280;11187;49.412;20.956;2022-10-31T14:16:28;95654.53;;;11.91;100.00
22047;BME280;11187;49.412;20.956;2022-10-31T14:19:08;95658.03;;;11.85;100.00
22047;BME280;11187;49.412;20.956;2022-10-31T14:22:20;95651.31;;;11.77;100.00
22047;BME280;11187;49.412;20.956;2022-10-31T14:25:31;95649.72;;;11.66;100.00
22047;BME280;11187;49.412;20.956;2022-10-31T14:31:36;95654.19;;;11.54;100.00
22047;BME280;11187;49.412;20.956;2022-10-31T14:34:34;95659.41;;;11.46;100.00
22047;BME280;11187;49.412;20.956;2022-10-31T14:37:40;95657.78;;;11.40;100.00
22047;BME280;11187;49.412;20.956;2022-10-31T14:41:06;95650.19;;;11.33;100.00
22047;BME280;11187;49.412;20.956;2022-10-31T14:43:56;95650.28;;;11.23;100.00
22047;BME280;11187;49.412;20.956;2022-10-31T14:46:54;95649.53;;;11.17;100.00
22047;BME280;11187;49.412;20.956;2022-10-31T14:52:54;95644.56;;;11.04;100.00
22047;BME280;11187;49.412;20.956;2022-10-31T14:55:52;95654.03;;;10.98;100.00
22047;BME280;11187;49.412;20.956;2022-10-31T14:58:37;95652.41;;;10.91;100.00
22047;BME280;11187;49.412;20.956;2022-10-31T15:01:29;95652.47;;;10.83;100.00
22047;BME280;11187;49.412;20.956;2022-10-31T15:04:25;95661.06;;;10.77;100.00
22047;BME280;11187;49.412;20.956;2022-10-31T15:07:23;95656.88;;;10.70;100.00
22047;BME280;11187;49.412;20.956;2022-10-31T15:10:24;95662.06;;;10.62;100.00
22047;BME280;11187;49.412;20.956;2022-10-31T15:13:27;95668.16;;;10.54;100.00
22047;BME280;11187;49.412;20.956;2022-10-31T15:16:17;95670.75;;;10.46;100.00
22047;BME280;11187;49.412;20.956;2022-10-31T15:18:54;95674.25;;;10.39;100.00
22047;BME280;11187;49.412;20.956;2022-10-31T15:21:44;95666.59;;;10.36;100.00
22047;BME280;11187;49.412;20.956;2022-10-31T15:24:23;95672.56;;;10.35;100.00
22047;BME280;11187;49.412;20.956;2022-10-31T15:27:18;95670.88;;;10.32;100.00
22047;BME280;11187;49.412;20.956;2022-10-31T15:29:55;95676.00;;;10.31;100.00
22047;BME280;11187;49.412;20.956;2022-10-31T15:32:50;95676.88;;;10.30;100.00
22047;BME280;11187;49.412;20.956;2022-10-31T15:35:54;95673.44;;;10.31;100.00
22047;BME280;11187;49.412;20.956;2022-10-31T15:38:48;95678.56;;;10.32;100.00
22047;BME280;11187;49.412;20.956;2022-10-31T15:41:42;95680.28;;;10.33;100.00
22047;BME280;11187;49.412;20.956;2022-10-31T15:44:36;95673.44;;;10.32;100.00
22047;BME280;11187;49.412;20.956;2022-10-31T15:47:17;95683.72;;;10.29;100.00
22047;BME280;11187;49.412;20.956;2022-10-31T15:50:19;95676.00;;;10.26;100.00
22047;BME280;11187;49.412;20.956;2022-10-31T15:52:53;95685.41;;;10.27;100.00
22047;BME280;11187;49.412;20.956;2022-10-31T15:55:47;95686.25;;;10.28;100.00
22047;BME280;11187;49.412;20.956;2022-10-31T15:58:22;95687.09;;;10.28;100.00
22047;BME280;11187;49.412;20.956;2022-10-31T16:04:23;95690.53;;;10.27;100.00
22047;BME280;11187;49.412;20.956;2022-10-31T16:07:13;95695.63;;;10.27;100.00
22047;BME280;11187;49.412;20.956;2022-10-31T16:10:03;95696.47;;;10.26;100.00
22047;BME280;11187;49.412;20.956;2022-10-31T16:12:45;95698.25;;;10.21;100.00
22047;BME280;11187;49.412;20.956;2022-10-31T16:15:32;95697.41;;;10.20;100.00
22047;BME280;11187;49.412;20.956;2022-10-31T16:18:11;95705.06;;;10.19;100.00
22047;BME280;11187;49.412;20.956;2022-10-31T16:20:58;95705.94;;;10.15;100.00
22047;BME280;11187;49.412;20.956;2022-10-31T16:23:31;95702.56;;;10.17;100.00
22047;BME280;11187;49.412;20.956;2022-10-31T16:26:18;95714.47;;;10.17;100.00